createdAt,value
2022-08-05T00:02:21.327Z,97384.31
2022-08-05T00:04:48.024Z,97379.19
2022-08-05T00:07:58.884Z,97381.91
2022-08-05T00:10:10.353Z,97379.84
2022-08-05T00:12:56.178Z,97386.91
2022-08-05T00:15:56.384Z,97386.13
2022-08-05T00:18:21.712Z,97383.19
2022-08-05T00:20:50.441Z,97375.56
2022-08-05T00:23:17.460Z,97380.91
2022-08-05T00:26:04.287Z,97375.44
2022-08-05T00:28:30.966Z,97379.50
2022-08-05T00:31:04.112Z,97375.06
2022-08-05T00:34:53.818Z,97369.50
2022-08-05T00:37:11.166Z,97372.88
2022-08-05T00:39:05.332Z,97368.00
2022-08-05T00:41:52.085Z,97362.44
2022-08-05T00:44:30.886Z,97366.03
2022-08-05T00:47:02.035Z,97368.00
2022-08-05T00:49:32.333Z,97363.69
2022-08-05T00:51:59.984Z,97360.09
2022-08-05T00:54:28.132Z,97363.47
2022-08-05T00:56:57.062Z,97361.09
2022-08-05T00:59:23.799Z,97353.97
2022-08-05T01:01:51.174Z,97359.00
2022-08-05T01:04:20.150Z,97352.03
2022-08-05T01:06:53.718Z,97351.09
2022-08-05T01:09:22.288Z,97350.31
2022-08-05T01:11:52.088Z,97350.31
2022-08-05T01:14:37.435Z,97357.19
2022-08-05T01:17:10.890Z,97350.88
2022-08-05T01:20:03.699Z,97350.69
2022-08-05T01:22:51.099Z,97355.38
2022-08-05T01:25:54.920Z,97350.78
2022-08-05T01:28:57.078Z,97352.09
2022-08-05T01:31:44.856Z,97349.88
2022-08-05T01:34:30.958Z,97349.00
2022-08-05T01:37:24.475Z,97345.50
2022-08-05T01:39:58.937Z,97347.09
2022-08-05T01:42:27.923Z,97347.16
2022-08-05T01:44:56.854Z,97347.16
2022-08-05T01:47:38.706Z,97335.09
2022-08-05T01:50:15.363Z,97339.94
2022-08-05T01:52:50.163Z,97343.16
2022-08-05T01:55:20.694Z,97341.59
2022-08-05T01:58:11.071Z,97335.94
2022-08-05T02:00:38.470Z,97335.78
2022-08-05T02:03:16.396Z,97343.97
2022-08-05T02:05:59.719Z,97338.28
2022-08-05T02:08:30.637Z,97342.31
2022-08-05T02:11:05.246Z,97330.94
2022-08-05T02:13:53.195Z,97333.56
2022-08-05T02:16:41.896Z,97337.06
2022-08-05T02:19:35.723Z,97339.03
2022-08-05T02:22:25.893Z,97329.94
2022-08-05T02:25:01.946Z,97330.66
2022-08-05T02:27:58.233Z,97341.03
2022-08-05T02:30:20.121Z,97344.03
2022-08-05T02:32:51.232Z,97352.28
2022-08-05T02:35:27.636Z,97341.66
2022-08-05T02:37:56.884Z,97342.88
2022-08-05T02:40:27.521Z,97337.22
2022-08-05T02:42:56.451Z,97344.06
2022-08-05T02:45:25.614Z,97345.41
2022-08-05T02:48:07.567Z,97339.78
2022-08-05T02:50:43.935Z,97331.53
2022-08-05T02:53:18.788Z,97333.13
2022-08-05T02:55:54.507Z,97331.75
2022-08-05T02:58:23.135Z,97337.88
2022-08-05T03:00:56.684Z,97329.59
2022-08-05T03:03:24.497Z,97328.03
2022-08-05T03:06:55.755Z,97332.97
2022-08-05T03:08:42.788Z,97323.59
2022-08-05T03:11:54.363Z,97332.00
2022-08-05T03:14:07.883Z,97331.91
2022-08-05T03:16:35.655Z,97332.63
2022-08-05T03:19:16.870Z,97338.19
2022-08-05T03:21:49.633Z,97332.41
2022-08-05T03:24:29.672Z,97330.00
2022-08-05T03:27:01.042Z,97324.47
2022-08-05T03:29:45.959Z,97325.09
2022-08-05T03:32:16.651Z,97313.91
2022-08-05T03:34:51.186Z,97322.06
2022-08-05T03:37:20.152Z,97320.09
2022-08-05T03:40:00.874Z,97315.34
2022-08-05T03:42:32.372Z,97320.97
2022-08-05T03:45:01.762Z,97328.69
2022-08-05T03:47:46.760Z,97323.84
2022-08-05T03:50:15.939Z,97322.97
2022-08-05T03:55:51.169Z,97327.16
2022-08-05T03:56:10.444Z,97326.44
2022-08-05T03:58:46.931Z,97337.41
2022-08-05T04:01:20.978Z,97334.69
2022-08-05T04:04:09.321Z,97331.09
2022-08-05T04:06:37.430Z,97331.09
2022-08-05T04:09:06.087Z,97334.69
2022-08-05T04:11:50.674Z,97330.66
2022-08-05T04:14:19.783Z,97331.28
2022-08-05T04:16:58.551Z,97336.09
2022-08-05T04:19:25.400Z,97332.88
2022-08-05T04:22:09.301Z,97327.97
2022-08-05T04:24:44.706Z,97330.91
2022-08-05T04:27:19.463Z,97326.84
2022-08-05T04:30:07.378Z,97330.50
2022-08-05T04:32:36.399Z,97322.16
2022-08-05T04:35:03.520Z,97334.69
2022-08-05T04:38:02.853Z,97335.50
2022-08-05T04:40:19.779Z,97328.75
2022-08-05T04:42:46.517Z,97335.75
2022-08-05T04:45:14.197Z,97341.44
2022-08-05T04:48:05.843Z,97340.09
2022-08-05T04:50:34.461Z,97342.16
2022-08-05T04:53:04.122Z,97348.16
2022-08-05T04:56:00.048Z,97341.84
2022-08-05T04:58:21.520Z,97348.72
2022-08-05T05:00:50.542Z,97347.41
2022-08-05T05:03:18.803Z,97349.63
2022-08-05T05:06:36.507Z,97358.00
2022-08-05T05:08:36.663Z,97358.00
2022-08-05T05:11:10.394Z,97358.16
2022-08-05T05:13:42.950Z,97356.50
2022-08-05T05:16:10.768Z,97361.50
2022-08-05T05:18:38.422Z,97359.03
2022-08-05T05:21:05.441Z,97358.63
2022-08-05T05:23:39.523Z,97359.59
2022-08-05T05:26:19.478Z,97356.31
2022-08-05T05:28:55.663Z,97362.75
2022-08-05T05:31:23.941Z,97358.47
2022-08-05T05:33:59.473Z,97361.88
2022-08-05T05:36:28.708Z,97366.66
2022-08-05T05:38:57.304Z,97359.81
2022-08-05T05:41:24.187Z,97360.75
2022-08-05T05:43:56.937Z,97361.84
2022-08-05T05:46:25.343Z,97363.66
2022-08-05T05:48:51.998Z,97361.72
2022-08-05T05:51:23.917Z,97358.38
2022-08-05T05:53:57.775Z,97364.63
2022-08-05T05:56:32.781Z,97351.81
2022-08-05T05:59:06.745Z,97353.41
2022-08-05T06:01:37.029Z,97360.94
2022-08-05T06:04:05.913Z,97360.44
2022-08-05T06:06:34.850Z,97357.91
2022-08-05T06:09:03.952Z,97370.53
2022-08-05T06:11:31.814Z,97365.19
2022-08-05T06:14:00.400Z,97362.41
2022-08-05T06:16:32.739Z,97369.50
2022-08-05T06:19:05.750Z,97368.94
2022-08-05T06:21:37.471Z,97363.72
2022-08-05T06:24:07.736Z,97354.34
2022-08-05T06:26:38.315Z,97367.94
2022-08-05T06:29:06.427Z,97361.31
2022-08-05T06:31:51.620Z,97364.41
2022-08-05T06:34:20.046Z,97365.19
2022-08-05T06:36:57.349Z,97368.13
2022-08-05T06:39:27.800Z,97373.38
2022-08-05T06:41:59.283Z,97375.03
2022-08-05T06:44:26.135Z,97369.97
2022-08-05T06:46:54.453Z,97368.84
2022-08-05T06:49:59.853Z,97369.94
2022-08-05T06:52:08.144Z,97370.94
2022-08-05T06:54:54.926Z,97379.59
2022-08-05T06:58:02.236Z,97380.56
2022-08-05T07:00:09.737Z,97386.25
2022-08-05T07:02:44.130Z,97384.47
2022-08-05T07:05:14.471Z,97383.16
2022-08-05T07:07:48.938Z,97394.47
2022-08-05T07:10:16.517Z,97382.13
2022-08-05T07:13:02.922Z,97385.06
2022-08-05T07:16:01.141Z,97383.22
2022-08-05T07:18:30.333Z,97387.66
2022-08-05T07:20:57.645Z,97391.38
2022-08-05T07:23:26.014Z,97392.25
2022-08-05T07:25:55.159Z,97390.41
2022-08-05T07:28:23.268Z,97394.03
2022-08-05T07:30:52.821Z,97386.59
2022-08-05T07:33:35.034Z,97390.97
2022-08-05T07:36:20.099Z,97388.25
2022-08-05T07:38:47.846Z,97390.50
2022-08-05T07:42:07.901Z,97389.91
2022-08-05T07:44:14.166Z,97391.63
2022-08-05T07:46:48.269Z,97383.28
2022-08-05T07:49:15.398Z,97391.84
2022-08-05T07:51:53.010Z,97388.53
2022-08-05T07:54:31.305Z,97386.56
2022-08-05T07:57:13.812Z,97390.31
2022-08-05T07:59:48.753Z,97391.88
2022-08-05T08:02:17.572Z,97390.63
2022-08-05T08:04:49.683Z,97389.38
2022-08-05T08:07:22.771Z,97385.97
2022-08-05T08:09:52.495Z,97386.88
2022-08-05T08:12:33.507Z,97389.88
2022-08-05T08:15:15.584Z,97394.13
2022-08-05T08:17:50.592Z,97392.97
2022-08-05T08:21:00.235Z,97392.34
2022-08-05T08:23:59.714Z,97393.97
2022-08-05T08:26:00.457Z,97387.06
2022-08-05T08:28:36.746Z,97392.78
2022-08-05T08:31:06.756Z,97386.59
2022-08-05T08:33:38.130Z,97386.03
2022-08-05T08:36:38.830Z,97382.69
2022-08-05T08:38:55.614Z,97391.16
2022-08-05T08:41:26.175Z,97390.59
2022-08-05T08:45:18.433Z,97396.44
2022-08-05T08:47:03.524Z,97382.69
2022-08-05T08:50:22.951Z,97392.06
2022-08-05T08:52:38.898Z,97390.53
2022-08-05T08:55:13.219Z,97390.53
2022-08-05T08:57:42.341Z,97389.22
2022-08-05T09:00:25.303Z,97396.94
2022-08-05T09:02:54.388Z,97398.44
2022-08-05T09:05:38.863Z,97400.09
2022-08-05T09:08:09.861Z,97403.00
2022-08-05T09:10:36.889Z,97411.56
2022-08-05T09:13:07.278Z,97411.69
2022-08-05T09:15:37.127Z,97411.91
2022-08-05T09:18:07.371Z,97402.84
2022-08-05T09:20:37.727Z,97405.72
2022-08-05T09:23:19.850Z,97403.00
2022-08-05T09:26:03.367Z,97405.22
2022-08-05T09:28:34.952Z,97406.81
2022-08-05T09:31:43.353Z,97402.81
2022-08-05T09:34:03.734Z,97410.53
2022-08-05T09:36:56.156Z,97404.22
2022-08-05T09:39:41.200Z,97401.31
2022-08-05T09:42:20.261Z,97396.41
2022-08-05T09:44:52.292Z,97398.63
2022-08-05T09:47:21.894Z,97401.56
2022-08-05T09:50:01.566Z,97414.28
2022-08-05T09:52:34.882Z,97405.41
2022-08-05T09:55:06.260Z,97409.00
2022-08-05T09:57:54.582Z,97407.53
2022-08-05T10:00:25.877Z,97409.72
2022-08-05T10:02:58.462Z,97408.38
2022-08-05T10:05:28.409Z,97403.47
2022-08-05T10:08:35.030Z,97396.44
2022-08-05T10:10:50.384Z,97392.91
2022-08-05T10:13:31.532Z,97393.00
2022-08-05T10:16:37.742Z,97394.38
2022-08-05T10:19:10.111Z,97390.84
2022-08-05T10:21:40.339Z,97386.06
2022-08-05T10:24:13.640Z,97388.25
2022-08-05T10:26:51.810Z,97391.06
2022-08-05T10:29:23.410Z,97389.00
2022-08-05T10:32:54.588Z,97391.03
2022-08-05T10:34:57.599Z,97386.81
2022-08-05T10:37:44.819Z,97393.94
2022-08-05T10:40:22.420Z,97386.31
2022-08-05T10:43:01.949Z,97394.81
2022-08-05T10:45:41.622Z,97399.72
2022-08-05T10:48:52.728Z,97389.97
2022-08-05T10:51:29.266Z,97391.41
2022-08-05T10:54:01.957Z,97391.44
2022-08-05T10:56:58.539Z,97386.53
2022-08-05T11:00:03.644Z,97392.19
2022-08-05T11:02:34.632Z,97385.16
2022-08-05T11:05:10.682Z,97392.94
2022-08-05T11:08:12.776Z,97393.72
2022-08-05T11:10:50.414Z,97392.31
2022-08-05T11:13:57.618Z,97395.09
2022-08-05T11:16:47.912Z,97392.97
2022-08-05T11:20:17.105Z,97395.13
2022-08-05T11:22:50.102Z,97389.47
2022-08-05T11:26:09.904Z,97387.41
2022-08-05T11:28:43.147Z,97395.88
2022-08-05T11:31:58.789Z,97393.75
2022-08-05T11:34:08.423Z,97396.56
2022-08-05T11:36:52.779Z,97395.19
2022-08-05T11:40:03.248Z,97386.75
2022-08-05T11:42:32.783Z,97388.84
2022-08-05T11:45:06.147Z,97386.72
2022-08-05T11:47:54.540Z,97392.38
2022-08-05T11:50:21.888Z,97384.63
2022-08-05T11:52:51.108Z,97390.97
2022-08-05T11:55:19.947Z,97385.34
2022-08-05T11:58:10.088Z,97389.56
2022-08-05T12:00:38.143Z,97391.66
2022-08-05T12:03:23.819Z,97386.72
2022-08-05T12:06:05.989Z,97382.44
2022-08-05T12:08:39.536Z,97378.94
2022-08-05T12:11:22.048Z,97381.03
2022-08-05T12:14:06.067Z,97376.09
2022-08-05T12:16:45.137Z,97371.84
2022-08-05T12:20:16.666Z,97374.63
2022-08-05T12:22:01.118Z,97371.81
2022-08-05T12:24:28.148Z,97363.31
2022-08-05T12:26:56.996Z,97361.94
2022-08-05T12:29:29.069Z,97356.25
2022-08-05T12:32:07.458Z,97354.06
2022-08-05T12:34:37.766Z,97349.84
2022-08-05T12:37:17.222Z,97349.91
2022-08-05T12:39:45.196Z,97351.22
2022-08-05T12:42:19.830Z,97354.75
2022-08-05T12:44:47.368Z,97352.59
2022-08-05T12:47:26.771Z,97341.22
2022-08-05T12:50:04.560Z,97344.78
2022-08-05T12:52:39.578Z,97344.13
2022-08-05T12:55:22.996Z,97331.44
2022-08-05T12:58:48.355Z,97338.50
2022-08-05T13:02:02.930Z,97338.50
2022-08-05T13:03:32.235Z,97332.09
2022-08-05T13:06:01.033Z,97331.41
2022-08-05T13:08:32.220Z,97346.97
2022-08-05T13:11:02.285Z,97332.84
2022-08-05T13:14:05.367Z,97332.09
2022-08-05T13:16:17.382Z,97330.59
2022-08-05T13:19:02.348Z,97322.06
2022-08-05T13:21:38.148Z,97322.03
2022-08-05T13:24:15.327Z,97314.31
2022-08-05T13:27:02.042Z,97310.81
2022-08-05T13:29:37.358Z,97312.84
2022-08-05T13:32:05.627Z,97307.88
2022-08-05T13:34:32.938Z,97305.00
2022-08-05T13:37:00.464Z,97298.72
2022-08-05T13:40:16.278Z,97306.47
2022-08-05T13:42:15.383Z,97303.66
2022-08-05T13:44:45.485Z,97297.34
2022-08-05T13:47:35.154Z,97293.13
2022-08-05T13:50:06.391Z,97298.69
2022-08-05T13:52:35.936Z,97296.50
2022-08-05T13:55:07.939Z,97292.28
2022-08-05T13:57:51.645Z,97288.06
2022-08-05T14:00:26.794Z,97296.53
2022-08-05T14:02:57.729Z,97295.13
2022-08-05T14:05:29.430Z,97290.13
2022-08-05T14:08:21.224Z,97279.53
2022-08-05T14:11:03.060Z,97288.75
2022-08-05T14:13:41.273Z,97281.03
2022-08-05T14:16:11.785Z,97284.59
2022-08-05T14:18:43.793Z,97289.44
2022-08-05T14:22:07.411Z,97282.44
2022-08-05T14:23:57.254Z,97285.31
2022-08-05T14:26:38.830Z,97286.00
2022-08-05T14:29:16.206Z,97285.97
2022-08-05T14:32:03.641Z,97289.50
2022-08-05T14:34:35.419Z,97282.47
2022-08-05T14:37:05.835Z,97280.41
2022-08-05T14:39:49.934Z,97286.06
2022-08-05T14:42:21.773Z,97283.28
2022-08-05T14:44:49.784Z,97286.78
2022-08-05T14:47:16.762Z,97278.25
2022-08-05T14:50:18.214Z,97278.25
2022-08-05T14:52:53.097Z,97278.91
2022-08-05T14:55:24.466Z,97267.63
2022-08-05T14:57:56.366Z,97275.41
2022-08-05T15:00:28.123Z,97279.63
2022-08-05T15:02:56.301Z,97279.66
2022-08-05T15:05:29.843Z,97275.41
2022-08-05T15:08:10.812Z,97274.03
2022-08-05T15:10:39.011Z,97269.19
2022-08-05T15:13:06.275Z,97260.13
2022-08-05T15:15:53.960Z,97261.56
2022-08-05T15:18:23.448Z,97261.56
2022-08-05T15:20:50.195Z,97267.16
2022-08-05T15:23:17.994Z,97262.97
2022-08-05T15:25:51.916Z,97259.44
2022-08-05T15:28:19.806Z,97271.44
2022-08-05T15:30:53.825Z,97272.84
2022-08-05T15:34:04.030Z,97270.03
2022-08-05T15:36:16.681Z,97265.81
2022-08-05T15:38:45.074Z,97269.38
2022-08-05T15:41:22.083Z,97273.63
2022-08-05T15:43:51.522Z,97274.38
2022-08-05T15:46:20.656Z,97277.88
2022-08-05T15:48:52.450Z,97290.56
2022-08-05T15:52:13.375Z,97281.41
2022-08-05T15:54:15.765Z,97276.53
2022-08-05T15:56:42.671Z,97287.13
2022-08-05T15:59:21.618Z,97283.56
2022-08-05T16:01:53.005Z,97289.97
2022-08-05T16:04:20.888Z,97290.00
2022-08-05T16:06:53.196Z,97289.34
2022-08-05T16:09:22.108Z,97290.78
2022-08-05T16:11:52.816Z,97290.06
2022-08-05T16:14:20.247Z,97285.88
2022-08-05T16:16:47.258Z,97283.09
2022-08-05T16:19:25.450Z,97287.31
2022-08-05T16:22:03.012Z,97286.63
2022-08-05T16:24:41.507Z,97282.41
2022-08-05T16:27:17.758Z,97278.91
2022-08-05T16:29:50.340Z,97277.47
2022-08-05T16:32:28.316Z,97281.72
2022-08-05T16:34:55.689Z,97287.38
2022-08-05T16:38:15.362Z,97288.78
2022-08-05T16:40:24.906Z,97295.84
2022-08-05T16:42:55.192Z,97293.03
2022-08-05T16:46:06.100Z,97290.22
2022-08-05T16:48:10.245Z,97283.88
2022-08-05T16:50:37.367Z,97286.00
2022-08-05T16:53:12.757Z,97290.22
2022-08-05T16:55:50.107Z,97285.28
2022-08-05T16:58:19.616Z,97285.28
2022-08-05T17:00:49.562Z,97286.69
2022-08-05T17:03:20.599Z,97282.47
2022-08-05T17:05:54.096Z,97285.97
2022-08-05T17:08:35.887Z,97288.06
2022-08-05T17:11:12.705Z,97289.47
2022-08-05T17:13:43.776Z,97278.91
2022-08-05T17:16:30.087Z,97283.13
2022-08-05T17:18:57.358Z,97287.34
2022-08-05T17:21:24.658Z,97288.72
2022-08-05T17:24:05.071Z,97293.63
2022-08-05T17:26:39.270Z,97295.03
2022-08-05T17:29:09.816Z,97290.09
2022-08-05T17:31:56.679Z,97291.44
2022-08-05T17:34:30.174Z,97296.31
2022-08-05T17:37:00.214Z,97297.66
2022-08-05T17:39:34.239Z,97296.25
2022-08-05T17:42:18.861Z,97291.25
2022-08-05T17:44:50.450Z,97303.88
2022-08-05T17:47:22.923Z,97298.16
2022-08-05T17:50:03.706Z,97308.72
2022-08-05T17:52:52.532Z,97306.56
2022-08-05T17:55:22.568Z,97307.91
2022-08-05T17:57:54.238Z,97310.00
2022-08-05T18:00:20.953Z,97312.09
2022-08-05T18:02:55.302Z,97320.56
2022-08-05T18:05:22.208Z,97323.31
2022-08-05T18:07:48.941Z,97329.59
2022-08-05T18:10:21.195Z,97331.69
2022-08-05T18:12:49.094Z,97330.97
2022-08-05T18:15:15.807Z,97328.09
2022-08-05T18:18:01.076Z,97325.97
2022-08-05T18:20:31.984Z,97325.91
2022-08-05T18:23:00.548Z,97339.22
2022-08-05T18:25:35.862Z,97332.84
2022-08-05T18:28:05.190Z,97333.50
2022-08-05T18:30:33.190Z,97338.47
2022-08-05T18:33:01.309Z,97344.03
2022-08-05T18:36:00.818Z,97341.84
2022-08-05T18:38:16.518Z,97348.13
2022-08-05T18:41:59.289Z,97348.78
2022-08-05T18:43:38.258Z,97359.22
2022-08-05T18:46:09.698Z,97369.72
2022-08-05T18:48:41.695Z,97366.94
2022-08-05T18:52:06.505Z,97380.31
2022-08-05T18:54:14.400Z,97389.34
2022-08-05T18:56:41.911Z,97390.75
2022-08-05T18:59:44.438Z,97397.03
2022-08-05T19:02:04.883Z,97398.41
2022-08-05T19:05:01.496Z,97399.06
2022-08-05T19:07:25.824Z,97409.50
2022-08-05T19:09:57.096Z,97406.69
2022-08-05T19:12:25.756Z,97412.25
2022-08-05T19:15:00.522Z,97412.91
2022-08-05T19:17:59.059Z,97417.72
2022-08-05T19:20:16.093Z,97426.78
2022-08-05T19:22:44.600Z,97426.72
2022-08-05T19:25:21.553Z,97426.69
2022-08-05T19:27:56.476Z,97423.22
2022-08-05T19:30:23.184Z,97428.78
2022-08-05T19:32:50.552Z,97441.31
2022-08-05T19:35:17.599Z,97437.09
2022-08-05T19:38:06.199Z,97446.97
2022-08-05T19:40:34.766Z,97442.81
2022-08-05T19:43:05.513Z,97449.06
2022-08-05T19:45:36.841Z,97449.81
2022-08-05T19:48:05.383Z,97444.22
2022-08-05T19:50:32.722Z,97456.69
2022-08-05T19:53:10.422Z,97453.16
2022-08-05T19:56:15.024Z,97459.44
2022-08-05T19:58:29.380Z,97459.38
2022-08-05T20:00:56.905Z,97458.63
2022-08-05T20:03:25.367Z,97464.88
2022-08-05T20:05:56.632Z,97469.03
2022-08-05T20:08:24.824Z,97459.28
2022-08-05T20:10:52.303Z,97460.59
2022-08-05T20:13:30.068Z,97456.38
2022-08-05T20:16:06.948Z,97463.31
2022-08-05T20:18:36.112Z,97460.50
2022-08-05T20:21:05.265Z,97451.31
2022-08-05T20:23:39.750Z,97454.75
2022-08-05T20:26:17.843Z,97452.69
2022-08-05T20:28:50.511Z,97452.63
2022-08-05T20:31:21.588Z,97449.88
2022-08-05T20:33:50.617Z,97442.78
2022-08-05T20:36:18.216Z,97456.00
2022-08-05T20:38:53.329Z,97453.13
2022-08-05T20:41:23.983Z,97452.38
2022-08-05T20:44:00.400Z,97462.13
2022-08-05T20:46:31.341Z,97461.31
2022-08-05T20:48:58.442Z,97459.97
2022-08-05T20:51:25.170Z,97464.03
2022-08-05T20:53:56.860Z,97466.63
2022-08-05T20:56:28.072Z,97462.16
2022-08-05T20:58:59.944Z,97462.78
2022-08-05T21:01:39.067Z,97466.16
2022-08-05T21:04:10.483Z,97458.28
2022-08-05T21:06:45.325Z,97474.38
2022-08-05T21:09:14.392Z,97477.66
2022-08-05T21:12:10.242Z,97479.66
2022-08-05T21:14:29.518Z,97480.88
2022-08-05T21:17:01.621Z,97482.88
2022-08-05T21:19:29.789Z,97480.09
2022-08-05T21:22:14.712Z,97468.09
2022-08-05T21:24:44.517Z,97475.06
2022-08-05T21:27:15.921Z,97479.78
2022-08-05T21:29:43.388Z,97480.38
2022-08-05T21:32:17.214Z,97483.84
2022-08-05T21:35:08.166Z,97487.81
2022-08-05T21:37:33.719Z,97487.81
2022-08-05T21:40:05.821Z,97496.78
2022-08-05T21:42:44.277Z,97493.84
2022-08-05T21:45:11.823Z,97489.72
2022-08-05T21:47:56.572Z,97488.34
2022-08-05T21:50:26.503Z,97489.88
2022-08-05T21:53:04.359Z,97496.97
2022-08-05T21:56:01.497Z,97494.09
2022-08-05T21:58:20.225Z,97492.81
2022-08-05T22:00:51.682Z,97496.34
2022-08-05T22:03:18.600Z,97502.19
2022-08-05T22:06:06.356Z,97502.25
2022-08-05T22:08:35.257Z,97503.09
2022-08-05T22:11:02.464Z,97499.72
2022-08-05T22:14:33.030Z,97508.88
2022-08-05T22:16:39.449Z,97507.56
2022-08-05T22:20:01.660Z,97511.69
2022-08-05T22:21:53.551Z,97516.47
2022-08-05T22:24:52.492Z,97514.94
2022-08-05T22:28:05.061Z,97505.06
2022-08-05T22:30:44.302Z,97512.13
2022-08-05T22:33:56.668Z,97505.72
2022-08-05T22:36:11.354Z,97514.69
2022-08-05T22:38:42.642Z,97516.72
2022-08-05T22:41:10.256Z,97518.78
2022-08-05T22:43:38.189Z,97518.03
2022-08-05T22:46:13.285Z,97524.25
2022-08-05T22:48:41.849Z,97536.06
2022-08-05T22:51:16.064Z,97550.53
2022-08-05T22:53:50.391Z,97551.16
2022-08-05T22:56:17.895Z,97549.69
2022-08-05T22:58:58.551Z,97553.09
2022-08-05T23:01:50.824Z,97557.16
2022-08-05T23:04:13.795Z,97552.25
2022-08-05T23:06:41.239Z,97553.75
2022-08-05T23:09:14.634Z,97560.63
2022-08-05T23:11:54.827Z,97562.56
2022-08-05T23:14:22.741Z,97579.22
2022-08-05T23:17:24.558Z,97579.03
2022-08-05T23:20:03.444Z,97586.72
2022-08-05T23:22:30.871Z,97606.16
2022-08-05T23:24:57.709Z,97619.28
2022-08-05T23:27:31.239Z,97646.34
2022-08-05T23:30:10.772Z,97670.44
2022-08-05T23:32:37.811Z,97664.31
2022-08-05T23:35:11.845Z,97687.41
2022-08-05T23:37:38.532Z,97698.84
2022-08-05T23:40:07.829Z,97704.78
2022-08-05T23:42:37.386Z,97724.00
2022-08-05T23:45:13.830Z,97729.66
2022-08-05T23:47:47.905Z,97728.38
2022-08-05T23:50:15.279Z,97708.72
2022-08-05T23:52:50.091Z,97718.41
2022-08-05T23:55:19.112Z,97731.88
2022-08-05T23:57:48.964Z,97727.75
